Logo AVAMET
Benvolgut visitant, si us plau, ingressa Recuperar contrasenya
AVAMET paisatges

Llutxent Coop. del Camp

Dades diàries. Acumulats / Últims 30 dies disponibles

Data Temperatura (°C) Humitat rel. (%) Pressió rel. (hPa) Vent (km/h) Precipitació
Mínima Mitjana Màxima Amplitud
tèrmica
Mínima Mitjana Màxima Mínima Mitjana Màxima Predom. Mitjana Ràfega
màxima
Total
(mm)
Índex-n
Mínima Mitjana Màxima Mínima Mitjana Màxima n
0 a 1
P0 max
mm 5'
Dades mensuals acumulades fins l'últim dia disponible
09/2020 14,9 17,9 20,7 22,5 21,8 27,7 31,8 16,9 21 69 97 1.008 1.015 1.023   5,3 46,7 36,4
Dades anuals acumulades fins l'últim dia disponible
2020 1,9 13,8 23,1 18,5 7,9 23,8 41,6 39,7 15 72 99 999 1.016 1.033   5,5 212,4 645,2
Últims 30 dies disponibles
25-09-2020 17,2     21,2     24,9 7,7 21 45 71 1.011 1.013 1.018 WNW 14,2 46,7 0,0
24-09-2020 19,3     24,3     30,2 10,9 38 53 68 1.009 1.011 1.012 WNW 10,5 41,8 0,0
23-09-2020 20,7     24,0     30,4 9,7 32 56 68 1.008 1.010 1.011 WNW 3,9 25,7 0,0
22-09-2020 17,2     22,7     29,0 11,8 33 68 93 1.009 1.012 1.014 WNW 3,1 24,1 0,0
21-09-2020 18,4     22,6     28,5 10,1 39 61 91 1.012 1.013 1.015 WNW 6,0 32,2 0,0
20-09-2020 17,3     22,4     27,5 10,2 39 59 78 1.012 1.014 1.015 WNW 5,0 27,4 0,0
19-09-2020 17,1     22,2     28,4 11,3 35 67 93 1.011 1.013 1.015 WNW 6,1 37,0 0,0
18-09-2020 17,5     21,3     26,2 8,7 53 81 95 1.011 1.013 1.015 WNW 4,8 35,4 5,4 0,52 1,20
17-09-2020 20,4     23,6     28,8 8,4 46 76 94 1.011 1.013 1.015 E 2,6 17,7 0,0
16-09-2020 20,1     24,4     29,2 9,1 51 76 95 1.013 1.016 1.018 WNW 4,3 33,8 0,0
15-09-2020 19,7     23,7     29,8 10,1 46 79 96 1.016 1.018 1.021 WNW 4,5 27,4 0,0
14-09-2020 17,7     22,5     27,6 9,9 49 76 90 1.018 1.020 1.021 E 5,6 37,0 0,0
13-09-2020 17,9     23,4     29,0 11,1 39 68 93 1.019 1.020 1.021 E 5,6 32,2 0,0
12-09-2020 19,3     24,2     30,4 11,1 47 71 93 1.013 1.015 1.019 WNW 5,3 32,2 0,0
11-09-2020 17,1     24,3     31,8 14,7 29 62 92 1.010 1.012 1.015 WNW 3,7 32,2 0,0
10-09-2020 16,7     21,6     26,8 10,1 49 73 92 1.013 1.016 1.018 E 3,5 27,4 0,0
09-09-2020 14,9     20,2     26,4 11,5 53 74 93 1.017 1.018 1.020 E 3,4 24,1 1,8 0,64 0,80
08-09-2020 15,7     19,3     23,4 7,7 42 75 97 1.019 1.020 1.022 E 3,7 29,0 28,8 0,28 4,00
07-09-2020 17,8     20,4     21,8 4,0 65 83 94 1.012 1.015 1.019 WNW 6,0 38,6 0,4
06-09-2020 18,3     22,8     28,1 9,8 53 77 94 1.012 1.014 1.016 E 5,3 33,8 0,0
05-09-2020 17,2     22,4     28,0 10,8 50 74 92 1.015 1.017 1.020 E 5,1 29,0 0,0
04-09-2020 17,1     22,4     27,1 10,0 54 70 86 1.019 1.021 1.023 E 6,3 38,6 0,0
03-09-2020 18,6     23,1     27,9 9,3 47 66 88 1.017 1.019 1.021 E 6,0 35,4 0,0
02-09-2020 17,9     22,0     26,3 8,4 50 72 88 1.011 1.013 1.017 E 5,0 35,4 0,0
01-09-2020 16,8     21,8     25,4 8,6 53 67 82 1.008 1.011 1.015 E 3,4 20,9 0,0
31-08-2020 13,9     20,6     26,1 12,2 34 60 80 1.013 1.015 1.018 S 6,3 38,6 0,0
30-08-2020 15,1     19,8     25,5 10,4 30 61 91 1.006 1.010 1.015 WNW 6,8 41,8 0,0
29-08-2020 18,9     22,5     24,6 5,7 61 75 95 1.000 1.001 1.006 ENE 8,7 46,7 0,0
28-08-2020 21,0     26,5     33,7 12,7 40 77 97 999 1.004 1.010 WNW 3,9 30,6 0,2
27-08-2020 21,2     27,4     35,3 14,1 37 75 96 1.009 1.013 1.016 SE 4,3 25,7 0,0
Últims 13 mesos disponibles
08/2020 13,9 21,1 23,1 26,4 24,6 32,4 41,6 27,7 40 67 84 1.001 1.011 1.016 E 5,5 46,7 5,2
07/2020 17,3 20,5 22,2 25,5 26,8 30,9 39,6 22,3 53 71 82 1.008 1.013 1.017 E 5,7 48,3 4,2
06/2020 12,8 17,2 21,4 22,6 20,4 28,4 32,1 19,3 43 68 85 1.003 1.012 1.018 WNW 5,9 49,9 21,4
05/2020 11,2 14,3 17,9 19,7 16,1 25,3 31,3 20,1 52 70 95 1.003 1.014 1.024 WNW 5,4 212,4 75,2
04/2020 6,7 10,8 15,0 14,2 14,1 18,7 24,3 17,6 55 80 97 1.004 1.014 1.023 E 5,2 48,3 56,6
03/2020 3,7 8,8 13,8 12,6 8,4 17,1 27,2 23,5 46 74 97 1.005 1.015 1.024 WNW 7,3 88,5 101,8
02/2020 3,6 8,9 13,3 13,7 13,0 20,0 25,1 21,5 40 70 93 1.012 1.024 1.031 WNW 4,1 43,5 4,6
01/2020 1,9 5,7 11,1 9,5 7,9 14,6 19,4 17,5 50 79 98 1.013 1.023 1.031 WNW 4,7 339,8
12/2019 1,9 8,7 17,4 12,2 10,8 16,7 23,5 21,6 46 73 97 1.001 1.017 1.031 WNW 6,4 82,1 152,8
11/2019 3,6 9,2 18,2 13,3 13,4 17,5 25,0 21,4 51 64 81 998 1.009 1.017 WNW 8,0 61,2 11,8
10/2019 8,7 14,5 18,1 19,0 13,7 24,2 32,1 23,4 43 70 92 1.007 1.014 1.020 O 3,7 37,0 25,6
09/2019 12,4 18,2 21,3 22,4 20,5 27,1 33,4 21,0 45 76 92 1.008 1.015 1.022 WNW 5,4 77,2 163,6
08/2019 16,1 20,6 25,3 25,8 26,2 31,5 40,4 24,3 33 69 86 1.008 1.013 1.017 E 5,8 54,7 29,4
Tots els anys disponibles
2019 -0,4 12,5 25,3 17,3 9,9 22,6 40,4 40,8 30 66 98 994 1.015 1.032 WNW 5,9 82,1 613,0
2018 0,5 12,6 23,6 17,1 5,7 22,2 37,1 36,6 WNW 5,7 88,5 692,0
2017 -1,4 12,6 23,3 17,4 6,5 22,8 38,3 39,7 WNW 5,5 101,4 415,2
Temperatura (°C)
Humitat relativa (%)
Velocitat del vent i ràfega màxima (km/h)
Direcció del vent (°)
Pressió (hPa)
Precipitació (mm)
Nota sobre les dades: s'avisa a l'usuari de la provisionalitat i no oficialitat d'aquestes dades
Logo AVAMET blanc
Web allotjada a Sollutia
Llicència de Creative CommonsLa web d'AVAMET i els seus continguts estan subjectes a una llicència de
Reconeixement - No Comercial - Compartir igual
Últimes estacions: Monteagudo del Castillo - El Portero (Limítrofe-Terol/Soci), Llocnou d'en Fenollet - El Molló (Soci), Castelló de la Plana - Grup Sant Agustí (Soci), Llíria - Urb. San Gerardo (Soci), Xàtiva - Ausiàs March (Soci), Gandia - Parpalló/Borrell (AVAMET), Olocau del Rei - La Magdalena (Electra/Soci), Ademuz - IES Ademuz (Soci), La Jana (Ajuntament Soci), - - -